sensor_id;sensor_type;location;lat;lon;timestamp;P1;durP1;ratioP1;P2;durP2;ratioP2
32748;SDS011;19119;52.474;13.710;2023-01-24T00:01:55;13.10;;;4.55;;
32748;SDS011;19119;52.474;13.710;2023-01-24T00:04:21;10.88;;;4.90;;
32748;SDS011;19119;52.474;13.710;2023-01-24T00:06:46;15.57;;;6.40;;
32748;SDS011;19119;52.474;13.710;2023-01-24T00:09:12;13.82;;;5.47;;
32748;SDS011;19119;52.474;13.710;2023-01-24T00:11:37;15.05;;;6.25;;
32748;SDS011;19119;52.474;13.710;2023-01-24T00:14:03;13.00;;;5.40;;
32748;SDS011;19119;52.474;13.710;2023-01-24T00:16:28;19.50;;;6.30;;
32748;SDS011;19119;52.474;13.710;2023-01-24T00:18:54;13.27;;;6.00;;
32748;SDS011;19119;52.474;13.710;2023-01-24T00:21:20;17.30;;;5.88;;
32748;SDS011;19119;52.474;13.710;2023-01-24T00:23:48;15.75;;;5.57;;
32748;SDS011;19119;52.474;13.710;2023-01-24T00:26:16;17.60;;;6.78;;
32748;SDS011;19119;52.474;13.710;2023-01-24T00:28:42;13.20;;;5.47;;
32748;SDS011;19119;52.474;13.710;2023-01-24T00:31:08;20.55;;;6.32;;
32748;SDS011;19119;52.474;13.710;2023-01-24T00:33:34;21.27;;;6.32;;
32748;SDS011;19119;52.474;13.710;2023-01-24T00:36:00;17.10;;;6.90;;
32748;SDS011;19119;52.474;13.710;2023-01-24T00:38:27;18.27;;;6.22;;
32748;SDS011;19119;52.474;13.710;2023-01-24T00:40:53;20.83;;;6.13;;
32748;SDS011;19119;52.474;13.710;2023-01-24T00:43:19;15.45;;;6.90;;
32748;SDS011;19119;52.474;13.710;2023-01-24T00:45:44;16.77;;;6.30;;
32748;SDS011;19119;52.474;13.710;2023-01-24T00:48:11;14.85;;;6.60;;
32748;SDS011;19119;52.474;13.710;2023-01-24T00:50:37;17.52;;;6.93;;
32748;SDS011;19119;52.474;13.710;2023-01-24T00:53:03;16.77;;;6.97;;
32748;SDS011;19119;52.474;13.710;2023-01-24T00:55:29;17.60;;;6.57;;
32748;SDS011;19119;52.474;13.710;2023-01-24T00:57:55;18.52;;;7.05;;
32748;SDS011;19119;52.474;13.710;2023-01-24T01:00:21;15.70;;;7.05;;
32748;SDS011;19119;52.474;13.710;2023-01-24T01:02:47;17.98;;;6.28;;
32748;SDS011;19119;52.474;13.710;2023-01-24T01:05:13;18.48;;;6.82;;
32748;SDS011;19119;52.474;13.710;2023-01-24T01:07:39;20.38;;;6.97;;
32748;SDS011;19119;52.474;13.710;2023-01-24T01:10:04;17.38;;;7.15;;
32748;SDS011;19119;52.474;13.710;2023-01-24T01:12:30;17.27;;;7.20;;
32748;SDS011;19119;52.474;13.710;2023-01-24T01:14:56;20.60;;;7.13;;
32748;SDS011;19119;52.474;13.710;2023-01-24T01:17:21;17.27;;;7.70;;
32748;SDS011;19119;52.474;13.710;2023-01-24T01:19:50;16.25;;;6.50;;
32748;SDS011;19119;52.474;13.710;2023-01-24T01:22:16;20.65;;;7.03;;
32748;SDS011;19119;52.474;13.710;2023-01-24T01:24:42;15.70;;;6.82;;
32748;SDS011;19119;52.474;13.710;2023-01-24T01:27:08;17.08;;;7.30;;
32748;SDS011;19119;52.474;13.710;2023-01-24T01:29:34;19.33;;;7.75;;
32748;SDS011;19119;52.474;13.710;2023-01-24T01:31:59;22.02;;;7.65;;
32748;SDS011;19119;52.474;13.710;2023-01-24T01:34:25;15.45;;;6.45;;
32748;SDS011;19119;52.474;13.710;2023-01-24T01:36:50;19.95;;;7.93;;
32748;SDS011;19119;52.474;13.710;2023-01-24T01:39:16;17.95;;;6.88;;
32748;SDS011;19119;52.474;13.710;2023-01-24T01:41:41;18.20;;;7.45;;
32748;SDS011;19119;52.474;13.710;2023-01-24T01:44:24;19.20;;;6.70;;
32748;SDS011;19119;52.474;13.710;2023-01-24T01:47:18;21.38;;;7.63;;
32748;SDS011;19119;52.474;13.710;2023-01-24T01:49:49;18.15;;;6.38;;
32748;SDS011;19119;52.474;13.710;2023-01-24T01:52:26;24.90;;;7.90;;
32748;SDS011;19119;52.474;13.710;2023-01-24T01:54:56;17.08;;;7.22;;
32748;SDS011;19119;52.474;13.710;2023-01-24T01:57:26;21.33;;;8.15;;
32748;SDS011;19119;52.474;13.710;2023-01-24T02:02:40;21.13;;;7.10;;
32748;SDS011;19119;52.474;13.710;2023-01-24T02:05:08;15.02;;;7.05;;
32748;SDS011;19119;52.474;13.710;2023-01-24T02:07:39;17.85;;;7.00;;
32748;SDS011;19119;52.474;13.710;2023-01-24T02:10:12;20.17;;;7.32;;
32748;SDS011;19119;52.474;13.710;2023-01-24T02:12:44;13.68;;;6.18;;
32748;SDS011;19119;52.474;13.710;2023-01-24T02:15:13;14.98;;;7.03;;
32748;SDS011;19119;52.474;13.710;2023-01-24T02:17:58;15.30;;;6.93;;
32748;SDS011;19119;52.474;13.710;2023-01-24T02:20:38;13.82;;;6.10;;
32748;SDS011;19119;52.474;13.710;2023-01-24T02:26:05;17.85;;;6.93;;
32748;SDS011;19119;52.474;13.710;2023-01-24T02:28:36;18.63;;;7.10;;
32748;SDS011;19119;52.474;13.710;2023-01-24T02:31:21;14.63;;;6.05;;
32748;SDS011;19119;52.474;13.710;2023-01-24T02:33:47;12.30;;;6.05;;
32748;SDS011;19119;52.474;13.710;2023-01-24T02:38:38;18.13;;;6.53;;
32748;SDS011;19119;52.474;13.710;2023-01-24T02:41:05;17.63;;;6.30;;
32748;SDS011;19119;52.474;13.710;2023-01-24T02:43:34;20.38;;;6.43;;
32748;SDS011;19119;52.474;13.710;2023-01-24T02:46:03;14.57;;;6.88;;
32748;SDS011;19119;52.474;13.710;2023-01-24T02:48:29;15.65;;;6.88;;
32748;SDS011;19119;52.474;13.710;2023-01-24T02:50:55;17.67;;;6.75;;
32748;SDS011;19119;52.474;13.710;2023-01-24T02:53:39;11.43;;;6.07;;
32748;SDS011;19119;52.474;13.710;2023-01-24T02:56:06;12.32;;;6.00;;
32748;SDS011;19119;52.474;13.710;2023-01-24T02:58:52;15.18;;;5.68;;
32748;SDS011;19119;52.474;13.710;2023-01-24T03:01:18;16.23;;;6.35;;
32748;SDS011;19119;52.474;13.710;2023-01-24T03:03:44;13.80;;;6.20;;
32748;SDS011;19119;52.474;13.710;2023-01-24T03:06:11;17.88;;;6.82;;
32748;SDS011;19119;52.474;13.710;2023-01-24T03:08:37;20.52;;;6.95;;
32748;SDS011;19119;52.474;13.710;2023-01-24T03:11:03;16.92;;;6.97;;
32748;SDS011;19119;52.474;13.710;2023-01-24T03:13:29;14.18;;;6.57;;
32748;SDS011;19119;52.474;13.710;2023-01-24T03:16:14;11.63;;;5.78;;
32748;SDS011;19119;52.474;13.710;2023-01-24T03:18:59;21.30;;;6.65;;
32748;SDS011;19119;52.474;13.710;2023-01-24T03:21:43;13.45;;;6.20;;
32748;SDS011;19119;52.474;13.710;2023-01-24T03:24:28;16.95;;;6.85;;
32748;SDS011;19119;52.474;13.710;2023-01-24T03:27:12;21.90;;;7.28;;
32748;SDS011;19119;52.474;13.710;2023-01-24T03:29:57;16.70;;;5.60;;
32748;SDS011;19119;52.474;13.710;2023-01-24T03:32:41;16.40;;;6.40;;
32748;SDS011;19119;52.474;13.710;2023-01-24T03:35:26;20.65;;;6.78;;
32748;SDS011;19119;52.474;13.710;2023-01-24T03:37:51;23.80;;;7.78;;
32748;SDS011;19119;52.474;13.710;2023-01-24T03:40:36;20.95;;;6.75;;
32748;SDS011;19119;52.474;13.710;2023-01-24T03:43:02;16.05;;;5.97;;
32748;SDS011;19119;52.474;13.710;2023-01-24T03:45:32;16.98;;;6.95;;
32748;SDS011;19119;52.474;13.710;2023-01-24T03:48:01;18.77;;;6.70;;
32748;SDS011;19119;52.474;13.710;2023-01-24T03:50:37;16.75;;;6.28;;
32748;SDS011;19119;52.474;13.710;2023-01-24T03:53:24;16.42;;;5.93;;
32748;SDS011;19119;52.474;13.710;2023-01-24T03:55:52;19.40;;;6.28;;
32748;SDS011;19119;52.474;13.710;2023-01-24T03:58:20;15.10;;;6.00;;
32748;SDS011;19119;52.474;13.710;2023-01-24T04:00:46;16.98;;;7.13;;
32748;SDS011;19119;52.474;13.710;2023-01-24T04:03:12;15.63;;;6.90;;
32748;SDS011;19119;52.474;13.710;2023-01-24T04:05:38;20.60;;;7.50;;
32748;SDS011;19119;52.474;13.710;2023-01-24T04:08:03;14.88;;;6.40;;
32748;SDS011;19119;52.474;13.710;2023-01-24T04:10:29;20.33;;;7.55;;
32748;SDS011;19119;52.474;13.710;2023-01-24T04:12:55;16.52;;;6.38;;
32748;SDS011;19119;52.474;13.710;2023-01-24T04:15:26;19.42;;;6.07;;
32748;SDS011;19119;52.474;13.710;2023-01-24T04:17:54;19.27;;;6.03;;
32748;SDS011;19119;52.474;13.710;2023-01-24T04:20:23;13.98;;;6.25;;
32748;SDS011;19119;52.474;13.710;2023-01-24T04:22:50;17.35;;;6.10;;
32748;SDS011;19119;52.474;13.710;2023-01-24T04:25:16;15.13;;;5.50;;
32748;SDS011;19119;52.474;13.710;2023-01-24T04:27:41;13.45;;;6.20;;
32748;SDS011;19119;52.474;13.710;2023-01-24T04:30:08;13.18;;;5.07;;
32748;SDS011;19119;52.474;13.710;2023-01-24T04:32:36;15.52;;;6.28;;
32748;SDS011;19119;52.474;13.710;2023-01-24T04:35:03;16.08;;;6.20;;
32748;SDS011;19119;52.474;13.710;2023-01-24T04:37:29;17.85;;;6.85;;
32748;SDS011;19119;52.474;13.710;2023-01-24T04:39:55;22.20;;;7.25;;
32748;SDS011;19119;52.474;13.710;2023-01-24T04:42:21;15.23;;;6.55;;
32748;SDS011;19119;52.474;13.710;2023-01-24T04:44:46;17.08;;;6.35;;
32748;SDS011;19119;52.474;13.710;2023-01-24T04:47:12;17.27;;;6.28;;
32748;SDS011;19119;52.474;13.710;2023-01-24T04:49:38;25.67;;;6.85;;
32748;SDS011;19119;52.474;13.710;2023-01-24T04:52:03;19.20;;;6.38;;
32748;SDS011;19119;52.474;13.710;2023-01-24T04:54:29;16.70;;;6.47;;
32748;SDS011;19119;52.474;13.710;2023-01-24T04:56:55;13.27;;;5.32;;
32748;SDS011;19119;52.474;13.710;2023-01-24T04:59:20;14.90;;;6.28;;
32748;SDS011;19119;52.474;13.710;2023-01-24T05:01:46;15.80;;;6.40;;
32748;SDS011;19119;52.474;13.710;2023-01-24T05:04:11;20.83;;;7.45;;
32748;SDS011;19119;52.474;13.710;2023-01-24T05:06:37;19.75;;;6.88;;
32748;SDS011;19119;52.474;13.710;2023-01-24T05:09:02;15.00;;;5.32;;
32748;SDS011;19119;52.474;13.710;2023-01-24T05:11:28;17.92;;;6.22;;
32748;SDS011;19119;52.474;13.710;2023-01-24T05:13:54;16.33;;;5.93;;
32748;SDS011;19119;52.474;13.710;2023-01-24T05:16:19;13.45;;;6.22;;
32748;SDS011;19119;52.474;13.710;2023-01-24T05:18:45;19.23;;;7.13;;
32748;SDS011;19119;52.474;13.710;2023-01-24T05:21:14;16.55;;;6.10;;
32748;SDS011;19119;52.474;13.710;2023-01-24T05:23:42;16.15;;;6.07;;
32748;SDS011;19119;52.474;13.710;2023-01-24T05:26:08;18.42;;;6.50;;
32748;SDS011;19119;52.474;13.710;2023-01-24T05:28:35;26.15;;;8.05;;
32748;SDS011;19119;52.474;13.710;2023-01-24T05:31:01;19.35;;;5.95;;
32748;SDS011;19119;52.474;13.710;2023-01-24T05:33:29;15.05;;;6.80;;
32748;SDS011;19119;52.474;13.710;2023-01-24T05:36:02;15.80;;;5.95;;
32748;SDS011;19119;52.474;13.710;2023-01-24T05:38:32;25.05;;;7.05;;
32748;SDS011;19119;52.474;13.710;2023-01-24T05:41:05;23.17;;;6.88;;
32748;SDS011;19119;52.474;13.710;2023-01-24T05:43:32;21.75;;;7.25;;
32748;SDS011;19119;52.474;13.710;2023-01-24T05:45:59;20.33;;;7.07;;
32748;SDS011;19119;52.474;13.710;2023-01-24T05:48:29;21.58;;;7.47;;
32748;SDS011;19119;52.474;13.710;2023-01-24T05:50:57;26.95;;;6.90;;
32748;SDS011;19119;52.474;13.710;2023-01-24T05:53:24;17.10;;;6.68;;
32748;SDS011;19119;52.474;13.710;2023-01-24T05:56:01;24.90;;;7.80;;
32748;SDS011;19119;52.474;13.710;2023-01-24T05:58:32;25.30;;;7.65;;
32748;SDS011;19119;52.474;13.710;2023-01-24T06:00:59;22.85;;;7.43;;
32748;SDS011;19119;52.474;13.710;2023-01-24T06:03:25;25.80;;;7.32;;
32748;SDS011;19119;52.474;13.710;2023-01-24T06:05:52;22.38;;;6.85;;
32748;SDS011;19119;52.474;13.710;2023-01-24T06:08:19;24.48;;;7.88;;
32748;SDS011;19119;52.474;13.710;2023-01-24T06:10:45;20.60;;;7.72;;
32748;SDS011;19119;52.474;13.710;2023-01-24T06:13:11;32.13;;;7.60;;
32748;SDS011;19119;52.474;13.710;2023-01-24T06:15:37;19.13;;;7.90;;
32748;SDS011;19119;52.474;13.710;2023-01-24T06:18:03;19.13;;;7.35;;
32748;SDS011;19119;52.474;13.710;2023-01-24T06:20:30;24.45;;;8.65;;
32748;SDS011;19119;52.474;13.710;2023-01-24T06:22:56;20.50;;;7.75;;
32748;SDS011;19119;52.474;13.710;2023-01-24T06:25:29;21.42;;;7.70;;
32748;SDS011;19119;52.474;13.710;2023-01-24T06:27:55;21.13;;;8.25;;
32748;SDS011;19119;52.474;13.710;2023-01-24T06:30:21;20.95;;;7.28;;
32748;SDS011;19119;52.474;13.710;2023-01-24T06:32:54;26.42;;;8.65;;
32748;SDS011;19119;52.474;13.710;2023-01-24T06:40:45;22.77;;;7.80;;
32748;SDS011;19119;52.474;13.710;2023-01-24T06:43:11;20.90;;;7.60;;
32748;SDS011;19119;52.474;13.710;2023-01-24T06:45:36;19.92;;;6.35;;
32748;SDS011;19119;52.474;13.710;2023-01-24T06:48:02;20.80;;;8.45;;
32748;SDS011;19119;52.474;13.710;2023-01-24T06:50:28;20.42;;;7.82;;
32748;SDS011;19119;52.474;13.710;2023-01-24T06:52:56;18.80;;;7.43;;
32748;SDS011;19119;52.474;13.710;2023-01-24T06:55:22;20.25;;;7.55;;
32748;SDS011;19119;52.474;13.710;2023-01-24T06:57:55;19.65;;;8.07;;
32748;SDS011;19119;52.474;13.710;2023-01-24T07:00:24;27.50;;;8.40;;
32748;SDS011;19119;52.474;13.710;2023-01-24T07:02:57;19.02;;;7.32;;
32748;SDS011;19119;52.474;13.710;2023-01-24T07:05:27;23.77;;;8.23;;
32748;SDS011;19119;52.474;13.710;2023-01-24T07:07:53;26.55;;;7.22;;
32748;SDS011;19119;52.474;13.710;2023-01-24T07:10:19;29.20;;;8.98;;
32748;SDS011;19119;52.474;13.710;2023-01-24T07:12:45;22.55;;;7.95;;
32748;SDS011;19119;52.474;13.710;2023-01-24T07:15:11;25.38;;;8.73;;
32748;SDS011;19119;52.474;13.710;2023-01-24T07:17:37;26.48;;;8.13;;
32748;SDS011;19119;52.474;13.710;2023-01-24T07:20:03;26.60;;;8.73;;
32748;SDS011;19119;52.474;13.710;2023-01-24T07:22:29;21.58;;;7.93;;
32748;SDS011;19119;52.474;13.710;2023-01-24T07:24:55;25.17;;;8.55;;
32748;SDS011;19119;52.474;13.710;2023-01-24T07:27:21;28.65;;;9.65;;
32748;SDS011;19119;52.474;13.710;2023-01-24T07:29:47;23.90;;;9.10;;
32748;SDS011;19119;52.474;13.710;2023-01-24T07:32:12;30.05;;;8.25;;
32748;SDS011;19119;52.474;13.710;2023-01-24T07:34:38;29.77;;;8.05;;
32748;SDS011;19119;52.474;13.710;2023-01-24T07:37:05;26.77;;;8.75;;
32748;SDS011;19119;52.474;13.710;2023-01-24T07:39:32;30.27;;;10.68;;
32748;SDS011;19119;52.474;13.710;2023-01-24T07:41:57;26.50;;;9.40;;
32748;SDS011;19119;52.474;13.710;2023-01-24T07:44:23;27.02;;;9.93;;
32748;SDS011;19119;52.474;13.710;2023-01-24T07:46:48;26.80;;;9.20;;
32748;SDS011;19119;52.474;13.710;2023-01-24T07:49:14;21.75;;;9.05;;
32748;SDS011;19119;52.474;13.710;2023-01-24T07:51:39;29.67;;;9.77;;
32748;SDS011;19119;52.474;13.710;2023-01-24T07:54:05;29.38;;;8.90;;
32748;SDS011;19119;52.474;13.710;2023-01-24T07:56:31;26.88;;;7.70;;
32748;SDS011;19119;52.474;13.710;2023-01-24T07:58:57;29.92;;;9.00;;
32748;SDS011;19119;52.474;13.710;2023-01-24T08:01:23;28.80;;;9.23;;
32748;SDS011;19119;52.474;13.710;2023-01-24T08:03:49;23.65;;;8.48;;
32748;SDS011;19119;52.474;13.710;2023-01-24T08:06:18;24.10;;;9.07;;
32748;SDS011;19119;52.474;13.710;2023-01-24T08:08:43;28.27;;;8.55;;
32748;SDS011;19119;52.474;13.710;2023-01-24T08:11:09;25.95;;;8.68;;
32748;SDS011;19119;52.474;13.710;2023-01-24T08:13:36;22.92;;;7.32;;
32748;SDS011;19119;52.474;13.710;2023-01-24T08:16:02;23.83;;;8.35;;
32748;SDS011;19119;52.474;13.710;2023-01-24T08:18:28;28.83;;;9.35;;
32748;SDS011;19119;52.474;13.710;2023-01-24T08:20:54;25.67;;;8.27;;
32748;SDS011;19119;52.474;13.710;2023-01-24T08:23:20;24.17;;;8.48;;
32748;SDS011;19119;52.474;13.710;2023-01-24T08:25:46;30.65;;;9.57;;
32748;SDS011;19119;52.474;13.710;2023-01-24T08:28:11;25.63;;;8.27;;
32748;SDS011;19119;52.474;13.710;2023-01-24T08:30:37;26.60;;;8.77;;
32748;SDS011;19119;52.474;13.710;2023-01-24T08:33:03;34.35;;;8.82;;
32748;SDS011;19119;52.474;13.710;2023-01-24T08:35:30;29.30;;;9.63;;
32748;SDS011;19119;52.474;13.710;2023-01-24T08:37:57;25.00;;;9.23;;
32748;SDS011;19119;52.474;13.710;2023-01-24T08:40:23;26.00;;;9.05;;
32748;SDS011;19119;52.474;13.710;2023-01-24T08:42:52;21.25;;;8.35;;
32748;SDS011;19119;52.474;13.710;2023-01-24T08:45:18;23.90;;;8.50;;
32748;SDS011;19119;52.474;13.710;2023-01-24T08:47:43;29.60;;;8.80;;
32748;SDS011;19119;52.474;13.710;2023-01-24T08:50:09;26.48;;;8.77;;
32748;SDS011;19119;52.474;13.710;2023-01-24T08:52:35;20.63;;;9.40;;
32748;SDS011;19119;52.474;13.710;2023-01-24T08:55:00;25.08;;;9.02;;
32748;SDS011;19119;52.474;13.710;2023-01-24T08:57:26;26.17;;;9.82;;
32748;SDS011;19119;52.474;13.710;2023-01-24T08:59:52;30.05;;;9.50;;
32748;SDS011;19119;52.474;13.710;2023-01-24T09:02:18;20.52;;;8.50;;
32748;SDS011;19119;52.474;13.710;2023-01-24T09:04:43;21.50;;;8.32;;
32748;SDS011;19119;52.474;13.710;2023-01-24T09:07:12;23.77;;;8.25;;
32748;SDS011;19119;52.474;13.710;2023-01-24T09:09:38;26.20;;;9.00;;
32748;SDS011;19119;52.474;13.710;2023-01-24T09:12:04;26.48;;;9.38;;
32748;SDS011;19119;52.474;13.710;2023-01-24T09:14:30;28.38;;;8.55;;
32748;SDS011;19119;52.474;13.710;2023-01-24T09:16:56;22.38;;;8.90;;
32748;SDS011;19119;52.474;13.710;2023-01-24T09:19:21;24.88;;;8.73;;
32748;SDS011;19119;52.474;13.710;2023-01-24T09:21:48;22.67;;;9.10;;
32748;SDS011;19119;52.474;13.710;2023-01-24T09:24:17;27.02;;;9.57;;
32748;SDS011;19119;52.474;13.710;2023-01-24T09:26:43;24.40;;;8.55;;
32748;SDS011;19119;52.474;13.710;2023-01-24T09:29:09;23.35;;;8.75;;
32748;SDS011;19119;52.474;13.710;2023-01-24T09:31:35;23.95;;;8.07;;
32748;SDS011;19119;52.474;13.710;2023-01-24T09:34:01;21.42;;;8.40;;
32748;SDS011;19119;52.474;13.710;2023-01-24T09:36:27;23.77;;;8.63;;
32748;SDS011;19119;52.474;13.710;2023-01-24T09:38:54;19.33;;;8.82;;
32748;SDS011;19119;52.474;13.710;2023-01-24T09:44:12;27.38;;;9.25;;
32748;SDS011;19119;52.474;13.710;2023-01-24T09:47:07;22.95;;;8.57;;
32748;SDS011;19119;52.474;13.710;2023-01-24T09:49:46;28.42;;;10.05;;
32748;SDS011;19119;52.474;13.710;2023-01-24T09:52:29;25.40;;;9.70;;
32748;SDS011;19119;52.474;13.710;2023-01-24T09:57:46;25.17;;;8.77;;
32748;SDS011;19119;52.474;13.710;2023-01-24T10:00:17;26.02;;;8.20;;
32748;SDS011;19119;52.474;13.710;2023-01-24T10:02:47;26.27;;;8.73;;
32748;SDS011;19119;52.474;13.710;2023-01-24T10:05:16;26.25;;;9.73;;
32748;SDS011;19119;52.474;13.710;2023-01-24T10:07:51;21.67;;;8.80;;
32748;SDS011;19119;52.474;13.710;2023-01-24T10:10:33;23.85;;;8.55;;
32748;SDS011;19119;52.474;13.710;2023-01-24T10:13:22;20.60;;;7.93;;
32748;SDS011;19119;52.474;13.710;2023-01-24T10:18:45;24.40;;;7.88;;
32748;SDS011;19119;52.474;13.710;2023-01-24T10:23:59;26.30;;;8.27;;
32748;SDS011;19119;52.474;13.710;2023-01-24T10:29:25;21.40;;;8.80;;
32748;SDS011;19119;52.474;13.710;2023-01-24T10:34:34;28.98;;;8.43;;
32748;SDS011;19119;52.474;13.710;2023-01-24T10:37:24;20.15;;;7.50;;
32748;SDS011;19119;52.474;13.710;2023-01-24T10:39:52;24.80;;;9.18;;
32748;SDS011;19119;52.474;13.710;2023-01-24T10:42:20;21.70;;;8.63;;
32748;SDS011;19119;52.474;13.710;2023-01-24T10:44:51;22.13;;;8.15;;
32748;SDS011;19119;52.474;13.710;2023-01-24T10:50:14;22.90;;;8.00;;
32748;SDS011;19119;52.474;13.710;2023-01-24T10:52:43;24.40;;;8.55;;
32748;SDS011;19119;52.474;13.710;2023-01-24T11:00:54;22.05;;;8.75;;
32748;SDS011;19119;52.474;13.710;2023-01-24T11:03:23;22.73;;;8.50;;
32748;SDS011;19119;52.474;13.710;2023-01-24T11:05:54;17.67;;;8.23;;
32748;SDS011;19119;52.474;13.710;2023-01-24T11:08:26;20.65;;;8.13;;
32748;SDS011;19119;52.474;13.710;2023-01-24T11:10:58;21.35;;;8.23;;
32748;SDS011;19119;52.474;13.710;2023-01-24T11:13:34;22.15;;;9.82;;
32748;SDS011;19119;52.474;13.710;2023-01-24T11:16:06;23.83;;;8.80;;
32748;SDS011;19119;52.474;13.710;2023-01-24T11:18:46;21.13;;;9.07;;
32748;SDS011;19119;52.474;13.710;2023-01-24T11:21:16;30.38;;;9.20;;
32748;SDS011;19119;52.474;13.710;2023-01-24T11:23:43;25.65;;;9.80;;
32748;SDS011;19119;52.474;13.710;2023-01-24T11:28:58;25.95;;;9.50;;
32748;SDS011;19119;52.474;13.710;2023-01-24T11:31:30;21.85;;;9.13;;
32748;SDS011;19119;52.474;13.710;2023-01-24T11:42:17;24.00;;;9.23;;
32748;SDS011;19119;52.474;13.710;2023-01-24T11:50:26;18.98;;;7.65;;
32748;SDS011;19119;52.474;13.710;2023-01-24T11:56:09;15.48;;;7.55;;
32748;SDS011;19119;52.474;13.710;2023-01-24T11:58:42;20.80;;;8.70;;
32748;SDS011;19119;52.474;13.710;2023-01-24T12:01:40;20.88;;;8.40;;
32748;SDS011;19119;52.474;13.710;2023-01-24T12:04:39;21.58;;;8.55;;
32748;SDS011;19119;52.474;13.710;2023-01-24T12:09:52;24.88;;;9.70;;
32748;SDS011;19119;52.474;13.710;2023-01-24T12:12:47;21.88;;;9.65;;
32748;SDS011;19119;52.474;13.710;2023-01-24T12:15:28;25.35;;;9.85;;
32748;SDS011;19119;52.474;13.710;2023-01-24T12:25:48;25.60;;;8.90;;
32748;SDS011;19119;52.474;13.710;2023-01-24T12:28:21;24.98;;;10.02;;
32748;SDS011;19119;52.474;13.710;2023-01-24T12:30:53;27.83;;;9.20;;
32748;SDS011;19119;52.474;13.710;2023-01-24T12:33:25;21.90;;;9.00;;
32748;SDS011;19119;52.474;13.710;2023-01-24T12:35:57;23.95;;;9.20;;
32748;SDS011;19119;52.474;13.710;2023-01-24T12:38:34;24.00;;;9.60;;
32748;SDS011;19119;52.474;13.710;2023-01-24T12:41:24;23.98;;;9.52;;
32748;SDS011;19119;52.474;13.710;2023-01-24T12:43:58;22.88;;;8.75;;
32748;SDS011;19119;52.474;13.710;2023-01-24T12:52:00;21.95;;;9.43;;
32748;SDS011;19119;52.474;13.710;2023-01-24T12:54:35;25.05;;;9.52;;
32748;SDS011;19119;52.474;13.710;2023-01-24T12:57:24;26.13;;;10.00;;
32748;SDS011;19119;52.474;13.710;2023-01-24T13:00:01;26.70;;;9.07;;
32748;SDS011;19119;52.474;13.710;2023-01-24T13:02:31;18.70;;;9.25;;
32748;SDS011;19119;52.474;13.710;2023-01-24T13:08:02;28.08;;;9.80;;
32748;SDS011;19119;52.474;13.710;2023-01-24T13:10:44;23.42;;;8.85;;
32748;SDS011;19119;52.474;13.710;2023-01-24T13:13:25;21.23;;;8.77;;
32748;SDS011;19119;52.474;13.710;2023-01-24T13:16:02;24.98;;;9.15;;
32748;SDS011;19119;52.474;13.710;2023-01-24T13:18:45;21.95;;;8.60;;
32748;SDS011;19119;52.474;13.710;2023-01-24T13:24:05;28.05;;;9.70;;
32748;SDS011;19119;52.474;13.710;2023-01-24T13:29:12;21.90;;;8.80;;
32748;SDS011;19119;52.474;13.710;2023-01-24T13:34:46;31.20;;;11.88;;
32748;SDS011;19119;52.474;13.710;2023-01-24T13:37:19;29.85;;;10.80;;
32748;SDS011;19119;52.474;13.710;2023-01-24T13:39:58;30.58;;;10.48;;
32748;SDS011;19119;52.474;13.710;2023-01-24T13:42:40;26.92;;;9.98;;
32748;SDS011;19119;52.474;13.710;2023-01-24T13:47:56;35.80;;;10.73;;
32748;SDS011;19119;52.474;13.710;2023-01-24T13:50:24;29.90;;;10.68;;
32748;SDS011;19119;52.474;13.710;2023-01-24T14:03:27;36.67;;;14.48;;
32748;SDS011;19119;52.474;13.710;2023-01-24T14:11:38;30.75;;;10.55;;
32748;SDS011;19119;52.474;13.710;2023-01-24T14:24:34;23.75;;;9.60;;
32748;SDS011;19119;52.474;13.710;2023-01-24T14:27:04;27.95;;;10.52;;
32748;SDS011;19119;52.474;13.710;2023-01-24T14:29:39;30.95;;;11.07;;
32748;SDS011;19119;52.474;13.710;2023-01-24T14:32:21;31.20;;;11.45;;
32748;SDS011;19119;52.474;13.710;2023-01-24T14:35:06;32.58;;;10.27;;
32748;SDS011;19119;52.474;13.710;2023-01-24T14:37:34;26.02;;;9.57;;
32748;SDS011;19119;52.474;13.710;2023-01-24T14:42:49;29.10;;;9.63;;
32748;SDS011;19119;52.474;13.710;2023-01-24T14:45:22;28.17;;;10.27;;
32748;SDS011;19119;52.474;13.710;2023-01-24T14:47:51;30.90;;;9.68;;
32748;SDS011;19119;52.474;13.710;2023-01-24T14:50:20;27.63;;;11.63;;
32748;SDS011;19119;52.474;13.710;2023-01-24T14:52:58;27.63;;;10.27;;
32748;SDS011;19119;52.474;13.710;2023-01-24T14:55:32;32.55;;;10.65;;
32748;SDS011;19119;52.474;13.710;2023-01-24T14:58:13;49.70;;;18.05;;
32748;SDS011;19119;52.474;13.710;2023-01-24T15:00:42;42.95;;;13.95;;
32748;SDS011;19119;52.474;13.710;2023-01-24T15:03:10;33.55;;;10.63;;
32748;SDS011;19119;52.474;13.710;2023-01-24T15:05:41;28.65;;;9.65;;
32748;SDS011;19119;52.474;13.710;2023-01-24T15:08:14;21.90;;;9.73;;
32748;SDS011;19119;52.474;13.710;2023-01-24T15:10:42;27.95;;;11.23;;
32748;SDS011;19119;52.474;13.710;2023-01-24T15:13:19;25.50;;;10.40;;
32748;SDS011;19119;52.474;13.710;2023-01-24T15:15:49;30.02;;;11.18;;
32748;SDS011;19119;52.474;13.710;2023-01-24T15:20:56;28.38;;;10.25;;
32748;SDS011;19119;52.474;13.710;2023-01-24T15:23:22;25.95;;;10.90;;
32748;SDS011;19119;52.474;13.710;2023-01-24T15:25:53;29.33;;;10.30;;
32748;SDS011;19119;52.474;13.710;2023-01-24T15:28:28;28.58;;;10.30;;
32748;SDS011;19119;52.474;13.710;2023-01-24T15:30:59;32.58;;;10.38;;
32748;SDS011;19119;52.474;13.710;2023-01-24T15:33:26;31.98;;;10.45;;
32748;SDS011;19119;52.474;13.710;2023-01-24T15:36:18;30.25;;;9.48;;
32748;SDS011;19119;52.474;13.710;2023-01-24T15:38:47;31.85;;;11.00;;
32748;SDS011;19119;52.474;13.710;2023-01-24T15:41:19;24.40;;;10.40;;
32748;SDS011;19119;52.474;13.710;2023-01-24T15:43:53;24.85;;;9.57;;
32748;SDS011;19119;52.474;13.710;2023-01-24T15:46:33;24.35;;;9.02;;
32748;SDS011;19119;52.474;13.710;2023-01-24T15:54:34;45.88;;;12.68;;
32748;SDS011;19119;52.474;13.710;2023-01-24T15:57:02;33.15;;;10.32;;
32748;SDS011;19119;52.474;13.710;2023-01-24T15:59:30;35.47;;;12.32;;
32748;SDS011;19119;52.474;13.710;2023-01-24T16:01:58;49.20;;;15.90;;
32748;SDS011;19119;52.474;13.710;2023-01-24T16:04:24;46.00;;;16.85;;
32748;SDS011;19119;52.474;13.710;2023-01-24T16:06:50;35.28;;;13.32;;
32748;SDS011;19119;52.474;13.710;2023-01-24T16:09:15;31.33;;;12.18;;
32748;SDS011;19119;52.474;13.710;2023-01-24T16:11:42;26.70;;;10.70;;
32748;SDS011;19119;52.474;13.710;2023-01-24T16:14:13;33.33;;;10.23;;
32748;SDS011;19119;52.474;13.710;2023-01-24T16:19:17;27.92;;;8.68;;
32748;SDS011;19119;52.474;13.710;2023-01-24T16:21:46;36.85;;;11.38;;
32748;SDS011;19119;52.474;13.710;2023-01-24T16:24:11;25.45;;;10.15;;
32748;SDS011;19119;52.474;13.710;2023-01-24T16:26:38;27.00;;;10.25;;
32748;SDS011;19119;52.474;13.710;2023-01-24T16:29:15;22.63;;;9.35;;
32748;SDS011;19119;52.474;13.710;2023-01-24T16:31:44;31.70;;;10.15;;
32748;SDS011;19119;52.474;13.710;2023-01-24T16:34:10;40.33;;;13.77;;
32748;SDS011;19119;52.474;13.710;2023-01-24T16:36:36;31.42;;;12.45;;
32748;SDS011;19119;52.474;13.710;2023-01-24T16:39:02;30.70;;;11.07;;
32748;SDS011;19119;52.474;13.710;2023-01-24T16:41:29;36.95;;;11.38;;
32748;SDS011;19119;52.474;13.710;2023-01-24T16:43:54;32.90;;;12.73;;